createdAt,value
2017-07-29T00:01:41.240Z,8.60
2017-07-29T00:04:08.755Z,7.47
2017-07-29T00:06:37.035Z,8.27
2017-07-29T00:09:05.340Z,6.67
2017-07-29T00:11:32.841Z,7.23
2017-07-29T00:14:00.378Z,8.33
2017-07-29T00:16:27.901Z,8.83
2017-07-29T00:18:55.807Z,7.03
2017-07-29T00:21:23.317Z,6.30
2017-07-29T00:23:50.832Z,7.93
2017-07-29T00:26:18.359Z,5.83
2017-07-29T00:28:45.904Z,7.30
2017-07-29T00:31:13.425Z,14.10
2017-07-29T00:33:40.928Z,7.30
2017-07-29T00:36:08.815Z,7.07
2017-07-29T00:38:36.348Z,5.53
2017-07-29T00:41:03.850Z,6.73
2017-07-29T00:43:31.392Z,6.97
2017-07-29T00:45:58.912Z,7.07
2017-07-29T00:48:26.714Z,6.83
2017-07-29T00:50:54.220Z,6.70
2017-07-29T00:53:21.737Z,5.00
2017-07-29T00:55:49.267Z,6.70
2017-07-29T00:58:16.776Z,6.50
2017-07-29T01:00:44.294Z,6.13
2017-07-29T01:03:11.798Z,4.80
2017-07-29T01:05:39.298Z,6.50
2017-07-29T01:08:07.932Z,7.03
2017-07-29T01:10:35.453Z,7.40
2017-07-29T01:13:02.952Z,7.00
2017-07-29T01:15:30.471Z,6.60
2017-07-29T01:17:58.741Z,6.37
2017-07-29T01:20:27.349Z,7.40
2017-07-29T01:22:54.872Z,6.97
2017-07-29T01:25:22.369Z,7.10
2017-07-29T01:27:49.876Z,7.43
2017-07-29T01:30:17.377Z,7.57
2017-07-29T01:32:45.207Z,6.70
2017-07-29T01:35:12.740Z,6.43
2017-07-29T01:37:40.253Z,8.83
2017-07-29T01:40:07.767Z,7.57
2017-07-29T01:42:35.287Z,7.10
2017-07-29T01:45:02.817Z,7.70
2017-07-29T01:47:30.325Z,7.50
2017-07-29T01:49:58.191Z,7.13
2017-07-29T01:52:25.714Z,6.90
2017-07-29T01:54:53.241Z,5.83
2017-07-29T01:57:20.780Z,7.67
2017-07-29T01:59:48.288Z,6.87
2017-07-29T02:02:16.076Z,7.73
2017-07-29T02:04:43.586Z,5.90
2017-07-29T02:07:11.096Z,6.50
2017-07-29T02:09:38.619Z,8.20
2017-07-29T02:12:06.139Z,6.70
2017-07-29T02:14:33.680Z,6.30
2017-07-29T02:17:01.214Z,5.83
2017-07-29T02:19:28.743Z,7.20
2017-07-29T02:21:56.254Z,6.40
2017-07-29T02:24:24.126Z,5.20
2017-07-29T02:26:51.644Z,6.60
2017-07-29T02:29:19.159Z,6.33
2017-07-29T02:31:46.676Z,6.57
2017-07-29T02:34:14.187Z,6.60
2017-07-29T02:36:41.705Z,5.90
2017-07-29T02:39:09.228Z,7.47
2017-07-29T02:41:36.742Z,5.83
2017-07-29T02:44:04.259Z,7.70
2017-07-29T02:46:32.890Z,6.30
2017-07-29T02:49:00.402Z,7.27
2017-07-29T02:51:28.677Z,8.03
2017-07-29T02:53:56.227Z,6.50
2017-07-29T02:56:23.755Z,6.00
2017-07-29T02:58:51.269Z,6.73
2017-07-29T03:01:18.777Z,6.47
2017-07-29T03:03:46.747Z,6.97
2017-07-29T03:06:14.255Z,6.50
2017-07-29T03:08:41.786Z,6.83
2017-07-29T03:11:09.315Z,7.00
2017-07-29T03:13:36.838Z,7.30
2017-07-29T03:16:04.642Z,7.57
2017-07-29T03:18:32.151Z,7.57
2017-07-29T03:20:59.677Z,8.77
2017-07-29T03:23:27.233Z,6.90
2017-07-29T03:25:54.747Z,6.23
2017-07-29T03:28:22.638Z,6.30
2017-07-29T03:30:50.152Z,6.33
2017-07-29T03:33:17.655Z,6.10
2017-07-29T03:35:45.171Z,6.70
2017-07-29T03:38:12.678Z,6.87
2017-07-29T03:40:40.481Z,7.03
2017-07-29T03:43:08.035Z,6.83
2017-07-29T03:45:35.528Z,7.50
2017-07-29T03:48:03.409Z,7.03
2017-07-29T03:50:30.934Z,7.50
2017-07-29T03:52:58.456Z,6.37
2017-07-29T03:55:25.978Z,7.33
2017-07-29T03:57:53.477Z,6.63
2017-07-29T04:00:21.283Z,6.03
2017-07-29T04:02:48.790Z,6.93
2017-07-29T04:05:16.324Z,6.40
2017-07-29T04:07:43.836Z,7.33
2017-07-29T04:10:11.352Z,7.40
2017-07-29T04:12:38.872Z,7.00
2017-07-29T04:15:06.408Z,7.67
2017-07-29T04:17:34.204Z,6.80
2017-07-29T04:20:01.720Z,6.80
2017-07-29T04:22:29.253Z,6.97
2017-07-29T04:24:56.775Z,5.63
2017-07-29T04:27:24.303Z,7.70
2017-07-29T04:29:52.156Z,6.33
2017-07-29T04:32:19.685Z,7.23
2017-07-29T04:34:47.979Z,7.10
2017-07-29T04:37:15.534Z,6.60
2017-07-29T04:39:43.055Z,5.77
2017-07-29T04:42:10.574Z,9.03
2017-07-29T04:44:38.112Z,6.20
2017-07-29T04:47:05.991Z,6.63
2017-07-29T04:49:33.525Z,7.17
2017-07-29T04:52:01.041Z,6.63
2017-07-29T04:54:28.574Z,6.17
2017-07-29T04:56:56.090Z,5.93
2017-07-29T04:59:23.891Z,5.93
2017-07-29T05:01:51.407Z,7.37
2017-07-29T05:04:18.929Z,5.70
2017-07-29T05:06:46.474Z,5.40
2017-07-29T05:09:14.007Z,5.10
2017-07-29T05:11:41.810Z,4.93
2017-07-29T05:14:09.348Z,6.20
2017-07-29T05:16:36.853Z,5.00
2017-07-29T05:19:04.370Z,5.33
2017-07-29T05:21:31.911Z,4.87
2017-07-29T05:23:59.815Z,5.70
2017-07-29T05:26:27.335Z,5.10
2017-07-29T05:28:54.857Z,5.03
2017-07-29T05:31:22.396Z,5.07
2017-07-29T05:33:49.919Z,5.50
2017-07-29T05:36:17.718Z,4.83
2017-07-29T05:38:45.232Z,5.50
2017-07-29T05:41:12.752Z,6.00
2017-07-29T05:43:40.285Z,7.00
2017-07-29T05:46:07.807Z,6.13
2017-07-29T05:48:35.620Z,5.13
2017-07-29T05:51:03.126Z,4.70
2017-07-29T05:53:30.634Z,4.90
2017-07-29T05:55:58.141Z,6.20
2017-07-29T05:58:25.642Z,6.10
2017-07-29T06:00:53.528Z,5.43
2017-07-29T06:03:21.036Z,6.40
2017-07-29T06:05:48.551Z,5.70
2017-07-29T06:08:16.080Z,5.53
2017-07-29T06:10:43.597Z,5.70
2017-07-29T06:13:11.427Z,4.50
2017-07-29T06:15:38.939Z,4.60
2017-07-29T06:18:06.517Z,5.27
2017-07-29T06:20:34.043Z,5.40
2017-07-29T06:23:01.551Z,4.17
2017-07-29T06:25:29.444Z,5.00
2017-07-29T06:27:56.946Z,6.67
2017-07-29T06:30:24.461Z,5.73
2017-07-29T06:32:52.008Z,6.17
2017-07-29T06:35:19.535Z,5.20
2017-07-29T06:37:47.840Z,5.17
2017-07-29T06:40:15.355Z,5.03
2017-07-29T06:42:42.862Z,5.50
2017-07-29T06:45:10.744Z,5.63
2017-07-29T06:47:38.268Z,4.23
2017-07-29T06:50:05.782Z,4.53
2017-07-29T06:52:33.303Z,5.53
2017-07-29T06:55:00.823Z,5.57
2017-07-29T06:57:28.750Z,5.30
2017-07-29T06:59:56.257Z,4.87
2017-07-29T07:02:24.534Z,14.40
2017-07-29T07:04:52.820Z,6.23
2017-07-29T07:07:20.322Z,6.07
2017-07-29T07:09:48.233Z,6.70
2017-07-29T07:12:15.743Z,5.90
2017-07-29T07:14:43.246Z,4.80
2017-07-29T07:17:10.761Z,5.63
2017-07-29T07:19:38.271Z,4.63
2017-07-29T07:22:06.073Z,6.07
2017-07-29T07:24:33.583Z,6.30
2017-07-29T07:27:01.107Z,5.27
2017-07-29T07:29:28.626Z,5.97
2017-07-29T07:31:56.133Z,3.83
2017-07-29T07:34:23.934Z,4.90
2017-07-29T07:36:51.451Z,4.87
2017-07-29T07:39:18.967Z,5.80
2017-07-29T07:41:46.485Z,5.03
2017-07-29T07:44:14.012Z,4.90
2017-07-29T07:46:41.881Z,4.87
2017-07-29T07:49:09.411Z,5.30
2017-07-29T07:51:37.694Z,5.57
2017-07-29T07:54:05.214Z,6.20
2017-07-29T07:56:32.765Z,6.07
2017-07-29T07:59:00.614Z,5.20
2017-07-29T08:01:28.130Z,5.83
2017-07-29T08:03:57.336Z,5.27
2017-07-29T08:06:24.858Z,5.40
2017-07-29T08:08:52.376Z,6.17
2017-07-29T08:11:20.254Z,5.53
2017-07-29T08:13:48.056Z,5.40
2017-07-29T08:16:15.602Z,5.40
2017-07-29T08:18:43.139Z,4.87
2017-07-29T08:21:10.669Z,5.10
2017-07-29T08:23:38.568Z,3.97
2017-07-29T08:26:06.100Z,4.40
2017-07-29T08:28:33.620Z,5.00
2017-07-29T08:31:01.166Z,4.63
2017-07-29T08:33:28.675Z,4.37
2017-07-29T08:35:56.597Z,4.20
2017-07-29T08:38:24.107Z,3.83
2017-07-29T08:40:51.641Z,3.93
2017-07-29T08:43:19.225Z,4.90
2017-07-29T08:45:46.760Z,4.70
2017-07-29T08:48:15.341Z,5.43
2017-07-29T08:50:42.879Z,5.70
2017-07-29T08:53:10.382Z,5.23
2017-07-29T08:55:37.901Z,4.20
2017-07-29T08:58:05.419Z,5.00
2017-07-29T09:00:33.301Z,4.80
2017-07-29T09:03:00.817Z,4.67
2017-07-29T09:05:29.097Z,4.00
2017-07-29T09:07:57.391Z,4.20
2017-07-29T09:10:24.911Z,3.70
2017-07-29T09:12:52.434Z,4.37
2017-07-29T09:15:19.959Z,3.60
2017-07-29T09:17:47.841Z,3.13
2017-07-29T09:20:15.350Z,3.73
2017-07-29T09:22:42.889Z,4.00
2017-07-29T09:25:10.422Z,4.43
2017-07-29T09:27:37.925Z,4.00
2017-07-29T09:30:05.749Z,3.63
2017-07-29T09:32:33.274Z,7.60
2017-07-29T09:35:01.557Z,4.00
2017-07-29T09:37:29.847Z,3.83
2017-07-29T09:39:57.359Z,3.70
2017-07-29T09:42:26.414Z,4.13
2017-07-29T09:44:53.928Z,3.63
2017-07-29T09:47:21.435Z,3.37
2017-07-29T09:49:48.968Z,3.60
2017-07-29T09:52:17.251Z,3.90
2017-07-29T09:54:45.051Z,4.07
2017-07-29T09:57:12.578Z,3.90
2017-07-29T09:59:40.088Z,3.30
2017-07-29T10:02:07.614Z,3.70
2017-07-29T10:04:35.152Z,3.37
2017-07-29T10:07:03.054Z,3.57
2017-07-29T10:09:30.567Z,3.70
2017-07-29T10:11:58.842Z,3.07
2017-07-29T10:14:27.137Z,4.10
2017-07-29T10:16:54.669Z,3.80
2017-07-29T10:19:22.480Z,3.63
2017-07-29T10:21:49.998Z,3.87
2017-07-29T10:24:18.288Z,3.67
2017-07-29T10:26:46.574Z,3.57
2017-07-29T10:29:14.184Z,3.60
2017-07-29T10:31:41.718Z,4.20
2017-07-29T10:34:09.242Z,2.87
2017-07-29T10:36:37.520Z,2.83
2017-07-29T10:39:05.793Z,3.73
2017-07-29T10:41:34.094Z,4.23
2017-07-29T10:44:01.602Z,2.90
2017-07-29T10:46:29.142Z,3.27
2017-07-29T10:48:56.657Z,2.90
2017-07-29T10:51:24.956Z,3.50
2017-07-29T10:53:52.471Z,3.20
2017-07-29T10:56:20.001Z,2.77
2017-07-29T10:58:47.522Z,2.97
2017-07-29T11:01:15.052Z,3.07
2017-07-29T11:03:42.872Z,3.23
2017-07-29T11:06:10.391Z,2.87
2017-07-29T11:08:38.675Z,3.07
2017-07-29T11:11:06.207Z,3.20
2017-07-29T11:13:33.739Z,3.47
2017-07-29T11:16:01.589Z,2.87
2017-07-29T11:18:29.095Z,3.23
2017-07-29T11:20:56.598Z,3.10
2017-07-29T11:23:24.115Z,6.00
2017-07-29T11:25:51.623Z,4.47
2017-07-29T11:28:19.137Z,3.20
2017-07-29T11:30:46.633Z,3.10
2017-07-29T11:33:14.506Z,3.10
2017-07-29T11:35:42.015Z,3.03
2017-07-29T11:38:09.524Z,3.80
2017-07-29T11:40:37.070Z,2.63
2017-07-29T11:43:04.582Z,2.97
2017-07-29T11:45:32.424Z,3.23
2017-07-29T11:47:59.929Z,3.30
2017-07-29T11:50:27.464Z,2.53
2017-07-29T11:52:55.003Z,3.13
2017-07-29T11:55:22.512Z,3.87
2017-07-29T11:57:51.154Z,2.93
2017-07-29T12:00:18.659Z,3.60
2017-07-29T12:02:46.932Z,2.73
2017-07-29T12:05:15.238Z,2.83
2017-07-29T12:07:42.750Z,3.03
2017-07-29T12:10:10.569Z,2.93
2017-07-29T12:12:38.078Z,3.03
2017-07-29T12:15:05.588Z,2.67
2017-07-29T12:17:33.114Z,3.30
2017-07-29T12:20:01.396Z,3.67
2017-07-29T12:22:30.970Z,2.67
2017-07-29T12:24:58.496Z,3.57
2017-07-29T12:27:26.015Z,3.03
2017-07-29T12:29:54.323Z,2.70
2017-07-29T12:32:21.853Z,3.23
2017-07-29T12:34:50.218Z,3.30
2017-07-29T12:37:17.724Z,2.83
2017-07-29T12:39:45.511Z,2.80
2017-07-29T12:42:13.020Z,2.90
2017-07-29T12:44:41.297Z,2.80
2017-07-29T12:47:08.818Z,3.33
2017-07-29T12:49:36.340Z,2.70
2017-07-29T12:52:04.201Z,4.10
2017-07-29T12:54:31.716Z,3.30
2017-07-29T12:56:59.221Z,2.70
2017-07-29T12:59:26.738Z,2.53
2017-07-29T13:01:54.261Z,2.77
2017-07-29T13:04:22.019Z,2.90
2017-07-29T13:06:49.530Z,2.80
2017-07-29T13:09:18.145Z,2.50
2017-07-29T13:11:45.659Z,3.13
2017-07-29T13:14:13.173Z,2.33
2017-07-29T13:16:40.691Z,2.47
2017-07-29T13:19:08.993Z,3.13
2017-07-29T13:21:36.917Z,2.93
2017-07-29T13:24:04.437Z,2.80
2017-07-29T13:26:31.970Z,2.70
2017-07-29T13:28:59.490Z,3.07
2017-07-29T13:31:26.992Z,2.53
2017-07-29T13:33:54.871Z,4.13
2017-07-29T13:36:22.382Z,3.47
2017-07-29T13:38:49.914Z,3.47
2017-07-29T13:41:17.448Z,3.67
2017-07-29T13:43:44.998Z,3.10
2017-07-29T13:46:14.395Z,3.80
2017-07-29T13:48:41.918Z,3.67
2017-07-29T13:51:09.431Z,2.53
2017-07-29T13:53:36.958Z,2.70
2017-07-29T13:56:05.243Z,3.10
2017-07-29T13:58:33.181Z,3.20
2017-07-29T14:01:00.744Z,2.93
2017-07-29T14:03:28.260Z,2.50
2017-07-29T14:05:55.774Z,3.07
2017-07-29T14:08:24.209Z,2.80
2017-07-29T14:10:52.065Z,2.60
2017-07-29T14:13:19.584Z,2.10
2017-07-29T14:15:47.133Z,2.53
2017-07-29T14:18:14.660Z,2.23
2017-07-29T14:20:42.179Z,2.50
2017-07-29T14:23:10.789Z,2.93
2017-07-29T14:25:38.293Z,2.83
2017-07-29T14:28:05.801Z,2.63
2017-07-29T14:30:33.347Z,2.20
2017-07-29T14:33:00.876Z,2.53
2017-07-29T14:35:28.811Z,4.83
2017-07-29T14:37:56.325Z,3.03
2017-07-29T14:40:23.839Z,2.97
2017-07-29T14:42:51.374Z,3.00
2017-07-29T14:45:18.879Z,5.47
2017-07-29T14:47:46.714Z,3.57
2017-07-29T14:50:14.294Z,2.70
2017-07-29T14:52:41.812Z,4.87
2017-07-29T14:55:09.700Z,3.07
2017-07-29T14:57:37.209Z,3.60
2017-07-29T15:00:05.518Z,2.93
2017-07-29T15:02:33.420Z,2.97
2017-07-29T15:05:00.936Z,2.50
2017-07-29T15:07:28.460Z,2.83
2017-07-29T15:09:55.981Z,2.70
2017-07-29T15:12:23.500Z,2.47
2017-07-29T15:14:51.307Z,2.73
2017-07-29T15:17:18.814Z,2.40
2017-07-29T15:19:47.090Z,3.67
2017-07-29T15:22:15.387Z,3.37
2017-07-29T15:24:42.898Z,3.20
2017-07-29T15:27:10.730Z,3.00
2017-07-29T15:29:38.247Z,2.77
2017-07-29T15:32:06.530Z,2.90
2017-07-29T15:34:34.820Z,2.87
2017-07-29T15:37:02.356Z,3.00
2017-07-29T15:39:30.183Z,3.07
2017-07-29T15:41:57.698Z,3.33
2017-07-29T15:44:25.987Z,3.07
2017-07-29T15:46:53.528Z,3.80
2017-07-29T15:49:21.823Z,3.20
2017-07-29T15:51:49.715Z,2.70
2017-07-29T15:54:17.236Z,2.87
2017-07-29T15:56:45.523Z,3.50
2017-07-29T15:59:13.061Z,3.40
2017-07-29T16:01:40.598Z,2.80
2017-07-29T16:04:08.422Z,3.30
2017-07-29T16:06:35.951Z,3.20
2017-07-29T16:09:04.228Z,2.57
2017-07-29T16:11:31.811Z,3.07
2017-07-29T16:13:59.340Z,3.93
2017-07-29T16:16:27.159Z,2.50
2017-07-29T16:18:54.686Z,2.90
2017-07-29T16:21:22.963Z,3.13
2017-07-29T16:23:51.239Z,2.83
2017-07-29T16:26:19.510Z,2.90
2017-07-29T16:28:48.137Z,2.50
2017-07-29T16:31:15.661Z,5.63
2017-07-29T16:33:43.945Z,3.60
2017-07-29T16:36:11.472Z,2.47
2017-07-29T16:38:38.986Z,3.20
2017-07-29T16:41:06.851Z,3.73
2017-07-29T16:43:34.366Z,3.00
2017-07-29T16:46:01.873Z,3.37
2017-07-29T16:48:29.416Z,3.43
2017-07-29T16:50:56.940Z,2.80
2017-07-29T16:53:24.780Z,3.40
2017-07-29T16:55:52.291Z,3.33
2017-07-29T16:58:19.824Z,2.90
2017-07-29T17:00:47.378Z,3.30
2017-07-29T17:03:14.877Z,3.57
2017-07-29T17:05:42.739Z,4.53
2017-07-29T17:08:10.272Z,3.80
2017-07-29T17:10:37.791Z,3.50
2017-07-29T17:13:05.340Z,3.80
2017-07-29T17:15:32.863Z,3.47
2017-07-29T17:18:01.487Z,5.60
2017-07-29T17:20:28.990Z,5.30
2017-07-29T17:22:56.501Z,4.53
2017-07-29T17:25:24.037Z,3.37
2017-07-29T17:27:51.576Z,4.23
2017-07-29T17:30:19.391Z,5.60
2017-07-29T17:32:46.920Z,10.47
2017-07-29T17:35:15.203Z,4.50
2017-07-29T17:37:42.735Z,5.20
2017-07-29T17:40:10.305Z,5.30
2017-07-29T17:42:38.914Z,3.43
2017-07-29T17:45:06.440Z,5.27
2017-07-29T17:47:33.960Z,3.67
2017-07-29T17:50:01.496Z,3.97
2017-07-29T17:52:29.024Z,4.77
2017-07-29T17:54:57.643Z,3.27
2017-07-29T17:57:25.174Z,3.53
2017-07-29T17:59:53.462Z,3.57
2017-07-29T18:02:21.000Z,3.97
2017-07-29T18:04:48.499Z,6.10
2017-07-29T18:07:16.299Z,4.43
2017-07-29T18:09:43.820Z,4.70
2017-07-29T18:12:11.347Z,4.33
2017-07-29T18:14:39.665Z,4.30
2017-07-29T18:17:07.179Z,3.63
2017-07-29T18:19:35.051Z,4.60
2017-07-29T18:22:02.591Z,4.40
2017-07-29T18:24:30.113Z,4.40
2017-07-29T18:26:57.652Z,4.90
2017-07-29T18:29:25.171Z,4.17
2017-07-29T18:31:52.975Z,4.37
2017-07-29T18:34:20.491Z,5.30
2017-07-29T18:36:48.003Z,5.10
2017-07-29T18:39:15.533Z,5.20
2017-07-29T18:41:43.809Z,5.60
2017-07-29T18:44:12.361Z,5.83
2017-07-29T18:46:39.866Z,7.20
2017-07-29T18:49:07.387Z,6.10
2017-07-29T18:51:34.932Z,5.93
2017-07-29T18:54:02.451Z,6.67
2017-07-29T18:56:30.340Z,5.40
2017-07-29T18:58:57.879Z,5.17
2017-07-29T19:01:25.399Z,5.37
2017-07-29T19:03:52.940Z,4.87
2017-07-29T19:06:20.461Z,5.90
2017-07-29T19:08:48.338Z,5.93
2017-07-29T19:11:15.863Z,6.17
2017-07-29T19:13:44.126Z,6.70
2017-07-29T19:16:11.645Z,6.53
2017-07-29T19:18:39.203Z,6.87
2017-07-29T19:21:07.061Z,6.33
2017-07-29T19:23:34.595Z,6.70
2017-07-29T19:26:02.867Z,7.83
2017-07-29T19:28:31.143Z,5.83
2017-07-29T19:30:59.429Z,6.23
2017-07-29T19:33:27.330Z,6.67
2017-07-29T19:35:54.887Z,6.30
2017-07-29T19:38:22.394Z,8.50
2017-07-29T19:40:49.947Z,7.67
2017-07-29T19:43:17.449Z,6.57
2017-07-29T19:45:45.350Z,7.40
2017-07-29T19:48:12.857Z,6.30
2017-07-29T19:50:41.121Z,8.40
2017-07-29T19:53:09.411Z,6.83
2017-07-29T19:55:37.685Z,8.17
2017-07-29T19:58:06.254Z,10.23
2017-07-29T20:00:33.771Z,8.00
2017-07-29T20:03:01.270Z,7.90
2017-07-29T20:05:28.790Z,7.50
2017-07-29T20:07:56.327Z,7.67
2017-07-29T20:10:23.851Z,7.23
2017-07-29T20:12:52.496Z,7.47
2017-07-29T20:15:20.015Z,8.33
2017-07-29T20:17:47.537Z,7.40
2017-07-29T20:20:15.354Z,9.57
2017-07-29T20:22:42.871Z,8.90
2017-07-29T20:25:10.385Z,9.27
2017-07-29T20:27:37.913Z,9.00
2017-07-29T20:30:06.195Z,20.60
2017-07-29T20:32:34.005Z,13.43
2017-07-29T20:35:01.527Z,9.80
2017-07-29T20:37:29.688Z,17.37
2017-07-29T20:39:57.999Z,13.63
2017-07-29T20:42:26.201Z,9.30
2017-07-29T20:44:54.119Z,9.30
2017-07-29T20:47:21.942Z,8.23
2017-07-29T20:49:49.479Z,14.70
2017-07-29T20:52:17.213Z,9.23
2017-07-29T20:54:44.733Z,12.40
2017-07-29T20:57:12.588Z,8.80
2017-07-29T20:59:40.131Z,11.10
2017-07-29T21:02:07.662Z,8.57
2017-07-29T21:04:35.205Z,9.20
2017-07-29T21:07:03.517Z,9.37
2017-07-29T21:09:31.377Z,10.90
2017-07-29T21:11:58.911Z,18.63
2017-07-29T21:14:26.454Z,12.03
2017-07-29T21:16:54.767Z,9.60
2017-07-29T21:19:22.316Z,9.97
2017-07-29T21:21:50.232Z,11.33
2017-07-29T21:24:17.786Z,9.73
2017-07-29T21:26:45.317Z,23.80
2017-07-29T21:29:12.877Z,11.00
2017-07-29T21:31:40.405Z,11.27
2017-07-29T21:34:09.017Z,9.90
2017-07-29T21:36:36.593Z,14.20
2017-07-29T21:39:04.137Z,16.87
2017-07-29T21:41:31.670Z,8.43
2017-07-29T21:43:59.968Z,9.20
2017-07-29T21:46:27.859Z,9.80
2017-07-29T21:48:55.388Z,9.37
2017-07-29T21:51:23.790Z,11.13
2017-07-29T21:53:51.365Z,10.07
2017-07-29T21:56:18.897Z,10.93
2017-07-29T21:58:46.805Z,13.50
2017-07-29T22:01:17.016Z,10.33
2017-07-29T22:03:44.533Z,13.37
2017-07-29T22:06:12.836Z,11.03
2017-07-29T22:08:40.371Z,12.00
2017-07-29T22:11:08.285Z,10.27
2017-07-29T22:13:35.840Z,10.20
2017-07-29T22:16:03.382Z,9.77
2017-07-29T22:18:30.934Z,9.80
2017-07-29T22:20:58.453Z,10.67
2017-07-29T22:23:26.269Z,10.30
2017-07-29T22:25:53.855Z,10.93
2017-07-29T22:28:21.390Z,14.67
2017-07-29T22:30:48.920Z,8.93
2017-07-29T22:33:17.214Z,10.17
2017-07-29T22:35:45.119Z,10.07
2017-07-29T22:38:12.664Z,9.60
2017-07-29T22:40:40.268Z,8.77
2017-07-29T22:43:07.827Z,10.37
2017-07-29T22:45:35.347Z,10.00
2017-07-29T22:48:03.156Z,7.90
2017-07-29T22:50:30.688Z,10.27
2017-07-29T22:52:58.236Z,10.43
2017-07-29T22:55:25.778Z,18.73
2017-07-29T22:57:53.306Z,10.80
2017-07-29T23:00:21.945Z,10.93
2017-07-29T23:02:49.458Z,10.87
2017-07-29T23:05:16.978Z,10.90
2017-07-29T23:07:44.526Z,12.80
2017-07-29T23:10:12.081Z,12.37
2017-07-29T23:12:39.930Z,12.23
2017-07-29T23:15:07.450Z,11.37
2017-07-29T23:17:35.737Z,8.47
2017-07-29T23:20:04.028Z,10.00
2017-07-29T23:22:31.551Z,11.57
2017-07-29T23:24:59.381Z,13.13
2017-07-29T23:27:26.893Z,10.47
2017-07-29T23:29:54.407Z,10.40
2017-07-29T23:32:21.930Z,9.73
2017-07-29T23:34:49.444Z,9.13
2017-07-29T23:37:17.252Z,7.47
2017-07-29T23:39:44.763Z,8.57
2017-07-29T23:42:12.279Z,7.63
2017-07-29T23:44:39.806Z,7.43
2017-07-29T23:47:07.325Z,8.13
2017-07-29T23:49:35.262Z,8.57
2017-07-29T23:52:02.784Z,7.73
2017-07-29T23:54:30.303Z,8.93
2017-07-29T23:56:57.842Z,9.50
2017-07-29T23:59:25.356Z,8.63
